createdAt,value
2018-09-12T00:00:03.478Z,20.40
2018-09-12T00:01:07.787Z,20.40
2018-09-12T00:02:11.960Z,20.40
2018-09-12T00:03:16.066Z,20.40
2018-09-12T00:04:20.302Z,20.30
2018-09-12T00:05:24.428Z,20.30
2018-09-12T00:06:28.457Z,20.30
2018-09-12T00:07:32.855Z,20.30
2018-09-12T00:08:37.050Z,20.30
2018-09-12T00:09:41.196Z,20.30
2018-09-12T00:10:45.679Z,20.20
2018-09-12T00:11:49.983Z,20.20
2018-09-12T00:12:54.249Z,20.20
2018-09-12T00:13:58.315Z,20.20
2018-09-12T00:15:02.395Z,20.20
2018-09-12T00:16:07.168Z,20.20
2018-09-12T00:17:11.715Z,20.20
2018-09-12T00:18:15.951Z,20.20
2018-09-12T00:19:20.272Z,20.20
2018-09-12T00:20:25.034Z,20.10
2018-09-12T00:21:29.756Z,20.10
2018-09-12T00:22:34.144Z,20.00
2018-09-12T00:23:38.741Z,20.00
2018-09-12T00:24:43.138Z,20.00
2018-09-12T00:25:47.280Z,19.90
2018-09-12T00:26:51.348Z,19.90
2018-09-12T00:27:56.063Z,19.80
2018-09-12T00:29:00.177Z,19.80
2018-09-12T00:30:04.447Z,19.70
2018-09-12T00:31:08.488Z,19.70
2018-09-12T00:32:12.628Z,19.70
2018-09-12T00:33:17.193Z,19.60
2018-09-12T00:34:21.251Z,19.60
2018-09-12T00:35:25.250Z,19.50
2018-09-12T00:36:29.312Z,19.50
2018-09-12T00:37:33.839Z,19.50
2018-09-12T00:38:38.127Z,19.40
2018-09-12T00:39:42.357Z,19.40
2018-09-12T00:40:46.453Z,19.40
2018-09-12T00:41:50.851Z,19.40
2018-09-12T00:42:55.246Z,19.40
2018-09-12T00:43:59.302Z,19.30
2018-09-12T00:45:03.457Z,19.30
2018-09-12T00:46:07.778Z,19.20
2018-09-12T00:47:12.158Z,19.00
2018-09-12T00:48:16.184Z,19.20
2018-09-12T00:49:20.649Z,19.20
2018-09-12T00:50:24.906Z,19.20
2018-09-12T00:51:29.406Z,19.20
2018-09-12T00:52:33.511Z,19.20
2018-09-12T00:53:37.514Z,19.20
2018-09-12T00:54:41.666Z,19.20
2018-09-12T00:55:45.851Z,19.20
2018-09-12T00:56:51.059Z,19.10
2018-09-12T00:57:55.260Z,19.10
2018-09-12T00:58:59.624Z,19.10
2018-09-12T01:00:03.781Z,19.10
2018-09-12T01:01:08.279Z,19.20
2018-09-12T01:02:12.540Z,19.10
2018-09-12T01:03:16.606Z,19.10
2018-09-12T01:04:20.979Z,19.10
2018-09-12T01:05:24.993Z,19.10
2018-09-12T01:06:29.092Z,19.10
2018-09-12T01:07:33.153Z,19.10
2018-09-12T01:08:37.469Z,19.10
2018-09-12T01:09:41.454Z,19.10
2018-09-12T01:10:45.502Z,19.10
2018-09-12T01:11:49.611Z,19.00
2018-09-12T01:12:53.736Z,19.00
2018-09-12T01:13:57.857Z,19.00
2018-09-12T01:15:01.879Z,18.90
2018-09-12T01:16:06.028Z,18.90
2018-09-12T01:17:10.455Z,18.90
2018-09-12T01:18:18.431Z,18.90
2018-09-12T01:19:22.490Z,18.90
2018-09-12T01:20:26.723Z,18.80
2018-09-12T01:21:31.233Z,18.80
2018-09-12T01:22:35.342Z,18.70
2018-09-12T01:23:39.449Z,18.70
2018-09-12T01:24:43.520Z,18.70
2018-09-12T01:25:48.213Z,18.70
2018-09-12T01:26:52.532Z,18.70
2018-09-12T01:27:56.574Z,18.70
2018-09-12T01:29:00.687Z,18.70
2018-09-12T01:30:08.523Z,18.70
2018-09-12T01:31:12.526Z,18.70
2018-09-12T01:32:16.699Z,18.70
2018-09-12T01:33:20.779Z,18.70
2018-09-12T01:34:24.859Z,18.70
2018-09-12T01:35:28.897Z,18.60
2018-09-12T01:36:33.170Z,18.60
2018-09-12T01:37:37.238Z,18.60
2018-09-12T01:38:41.289Z,18.60
2018-09-12T01:39:45.342Z,18.60
2018-09-12T01:40:49.592Z,18.60
2018-09-12T01:41:53.670Z,18.60
2018-09-12T01:42:57.744Z,18.60
2018-09-12T01:44:01.778Z,18.60
2018-09-12T01:45:06.048Z,18.50
2018-09-12T01:46:10.109Z,18.70
2018-09-12T01:47:14.411Z,18.50
2018-09-12T01:48:18.471Z,18.50
2018-09-12T01:49:22.509Z,18.50
2018-09-12T01:50:26.557Z,18.50
2018-09-12T01:51:30.630Z,18.50
2018-09-12T01:52:34.721Z,18.60
2018-09-12T01:53:38.824Z,18.50
2018-09-12T01:54:42.880Z,18.50
2018-09-12T01:55:47.336Z,18.50
2018-09-12T01:56:51.331Z,18.50
2018-09-12T01:57:55.462Z,18.50
2018-09-12T01:58:59.746Z,18.60
2018-09-12T02:00:04.160Z,18.50
2018-09-12T02:01:08.529Z,18.50
2018-09-12T02:02:12.632Z,18.50
2018-09-12T02:03:16.683Z,18.50
2018-09-12T02:04:20.724Z,18.50
2018-09-12T02:05:24.797Z,18.40
2018-09-12T02:06:29.483Z,18.40
2018-09-12T02:07:33.835Z,18.40
2018-09-12T02:08:38.064Z,18.40
2018-09-12T02:09:42.037Z,18.40
2018-09-12T02:10:46.193Z,18.40
2018-09-12T02:11:50.771Z,18.40
2018-09-12T02:12:55.244Z,18.40
2018-09-12T02:13:59.738Z,18.40
2018-09-12T02:15:04.463Z,18.40
2018-09-12T02:16:08.666Z,18.40
2018-09-12T02:17:14.515Z,18.40
2018-09-12T02:18:19.214Z,18.40
2018-09-12T02:19:23.258Z,18.40
2018-09-12T02:20:27.577Z,18.40
2018-09-12T02:21:31.801Z,18.40
2018-09-12T02:22:36.089Z,18.40
2018-09-12T02:23:40.647Z,18.40
2018-09-12T02:24:45.054Z,18.40
2018-09-12T02:25:49.362Z,18.30
2018-09-12T02:26:53.469Z,18.30
2018-09-12T02:27:57.848Z,18.30
2018-09-12T02:29:02.083Z,18.30
2018-09-12T02:30:07.317Z,18.30
2018-09-12T02:31:11.439Z,18.30
2018-09-12T02:32:15.530Z,18.30
2018-09-12T02:33:20.055Z,18.30
2018-09-12T02:34:24.081Z,18.30
2018-09-12T02:35:28.457Z,18.30
2018-09-12T02:36:32.552Z,18.30
2018-09-12T02:37:36.559Z,18.30
2018-09-12T02:38:40.959Z,18.30
2018-09-12T02:39:45.418Z,18.30
2018-09-12T02:40:49.915Z,18.30
2018-09-12T02:41:54.014Z,18.30
2018-09-12T02:42:58.062Z,18.30
2018-09-12T02:44:02.191Z,18.30
2018-09-12T02:45:06.974Z,18.20
2018-09-12T02:46:11.089Z,18.20
2018-09-12T02:47:20.691Z,18.20
2018-09-12T02:48:25.135Z,18.10
2018-09-12T02:49:29.468Z,18.20
2018-09-12T02:50:34.132Z,18.20
2018-09-12T02:51:38.187Z,18.20
2018-09-12T02:52:42.342Z,18.20
2018-09-12T02:53:46.775Z,18.20
2018-09-12T02:54:50.879Z,18.20
2018-09-12T02:55:54.979Z,18.20
2018-09-12T02:56:59.139Z,18.20
2018-09-12T02:58:03.255Z,18.20
2018-09-12T03:02:35.237Z,18.30
2018-09-12T03:03:39.975Z,18.30
2018-09-12T03:04:44.144Z,18.30
2018-09-12T03:05:48.291Z,18.30
2018-09-12T03:06:52.916Z,18.20
2018-09-12T03:07:57.184Z,18.20
2018-09-12T03:09:01.533Z,18.20
2018-09-12T03:10:06.743Z,18.20
2018-09-12T03:11:10.842Z,18.20
2018-09-12T03:12:15.766Z,18.10
2018-09-12T03:13:19.871Z,18.00
2018-09-12T03:14:23.971Z,18.10
2018-09-12T03:15:28.251Z,18.10
2018-09-12T03:16:32.657Z,18.10
2018-09-12T03:17:36.853Z,18.10
2018-09-12T03:18:41.225Z,18.10
2018-09-12T03:19:45.259Z,18.00
2018-09-12T03:20:49.534Z,18.00
2018-09-12T03:21:53.607Z,18.00
2018-09-12T03:22:58.083Z,16.00
2018-09-12T03:24:02.276Z,18.00
2018-09-12T03:25:06.455Z,18.00
2018-09-12T03:26:10.648Z,18.00
2018-09-12T03:27:14.748Z,18.00
2018-09-12T03:28:18.807Z,17.90
2018-09-12T03:29:22.889Z,17.90
2018-09-12T03:30:27.258Z,17.90
2018-09-12T03:31:31.302Z,18.00
2018-09-12T03:32:35.387Z,18.00
2018-09-12T03:33:39.822Z,18.00
2018-09-12T03:34:43.899Z,17.90
2018-09-12T03:35:48.142Z,17.90
2018-09-12T03:37:39.223Z,17.90
2018-09-12T03:38:43.798Z,17.90
2018-09-12T03:39:48.203Z,17.90
2018-09-12T03:40:52.577Z,18.00
2018-09-12T03:41:56.763Z,17.90
2018-09-12T03:43:00.736Z,18.00
2018-09-12T03:44:04.861Z,18.00
2018-09-12T03:45:09.014Z,18.00
2018-09-12T03:46:13.006Z,18.00
2018-09-12T03:47:17.337Z,18.00
2018-09-12T03:48:21.796Z,18.00
2018-09-12T03:49:26.197Z,18.00
2018-09-12T03:50:32.006Z,18.00
2018-09-12T03:51:36.197Z,18.00
2018-09-12T03:52:40.274Z,18.00
2018-09-12T03:53:44.515Z,18.00
2018-09-12T03:54:48.661Z,18.00
2018-09-12T03:55:52.657Z,18.00
2018-09-12T03:56:56.764Z,18.00
2018-09-12T03:58:01.526Z,18.00
2018-09-12T03:59:09.345Z,18.00
2018-09-12T04:00:13.401Z,18.00
2018-09-12T04:01:18.107Z,18.00
2018-09-12T04:02:22.274Z,18.00
2018-09-12T04:03:26.377Z,18.00
2018-09-12T04:04:30.781Z,18.00
2018-09-12T04:05:35.176Z,18.00
2018-09-12T04:06:40.392Z,18.00
2018-09-12T04:07:44.669Z,18.00
2018-09-12T04:08:49.787Z,18.00
2018-09-12T04:09:53.861Z,18.00
2018-09-12T04:10:58.816Z,18.00
2018-09-12T04:12:05.856Z,18.00
2018-09-12T04:13:13.471Z,18.10
2018-09-12T04:14:17.916Z,18.10
2018-09-12T04:15:23.807Z,18.10
2018-09-12T04:16:29.116Z,18.10
2018-09-12T04:17:36.707Z,18.10
2018-09-12T04:18:40.865Z,18.10
2018-09-12T04:19:46.007Z,18.10
2018-09-12T04:20:50.186Z,18.10
2018-09-12T04:21:54.308Z,18.40
2018-09-12T04:22:58.677Z,18.10
2018-09-12T04:24:02.776Z,18.10
2018-09-12T04:25:06.829Z,18.10
2018-09-12T04:26:10.888Z,18.10
2018-09-12T04:27:15.804Z,18.10
2018-09-12T04:28:20.806Z,18.10
2018-09-12T04:29:24.986Z,18.10
2018-09-12T04:30:29.375Z,19.70
2018-09-12T04:31:33.490Z,18.10
2018-09-12T04:32:37.682Z,20.00
2018-09-12T04:33:41.764Z,19.90
2018-09-12T04:34:45.736Z,18.00
2018-09-12T04:35:50.503Z,18.00
2018-09-12T04:36:54.501Z,18.00
2018-09-12T04:37:58.493Z,18.00
2018-09-12T04:39:04.599Z,17.90
2018-09-12T04:40:08.805Z,17.90
2018-09-12T04:41:12.970Z,17.90
2018-09-12T04:42:16.955Z,17.80
2018-09-12T04:43:22.054Z,17.80
2018-09-12T04:44:26.006Z,17.80
2018-09-12T04:45:30.182Z,17.80
2018-09-12T04:46:36.342Z,17.80
2018-09-12T04:47:40.354Z,17.80
2018-09-12T04:48:44.344Z,17.80
2018-09-12T04:49:48.830Z,17.80
2018-09-12T04:50:53.600Z,17.80
2018-09-12T04:51:58.420Z,17.80
2018-09-12T04:53:02.453Z,17.80
2018-09-12T04:54:06.641Z,17.80
2018-09-12T04:55:11.176Z,17.80
2018-09-12T04:56:15.954Z,17.80
2018-09-12T04:57:19.984Z,17.80
2018-09-12T04:58:25.185Z,17.80
2018-09-12T04:59:30.430Z,17.80
2018-09-12T05:00:35.301Z,17.90
2018-09-12T05:01:40.084Z,17.80
2018-09-12T05:02:44.462Z,17.80
2018-09-12T05:03:49.210Z,17.80
2018-09-12T05:04:53.442Z,17.80
2018-09-12T05:05:57.441Z,17.80
2018-09-12T05:07:01.439Z,17.80
2018-09-12T05:08:05.761Z,17.50
2018-09-12T05:09:13.045Z,17.00
2018-09-12T05:10:17.157Z,17.80
2018-09-12T05:11:21.234Z,17.80
2018-09-12T05:12:25.325Z,15.90
2018-09-12T05:13:29.397Z,17.80
2018-09-12T05:14:33.383Z,17.80
2018-09-12T05:15:37.456Z,17.80
2018-09-12T05:16:41.547Z,17.80
2018-09-12T05:17:45.714Z,17.80
2018-09-12T05:18:49.790Z,17.70
2018-09-12T05:19:53.916Z,17.80
2018-09-12T05:20:57.881Z,17.70
2018-09-12T05:22:02.439Z,17.70
2018-09-12T05:23:09.278Z,17.70
2018-09-12T05:24:14.210Z,17.70
2018-09-12T05:25:20.115Z,17.70
2018-09-12T05:26:24.261Z,17.70
2018-09-12T05:27:28.317Z,17.70
2018-09-12T05:28:32.308Z,17.60
2018-09-12T05:29:36.286Z,17.60
2018-09-12T05:30:42.754Z,17.60
2018-09-12T05:31:46.945Z,17.60
2018-09-12T05:32:51.215Z,17.60
2018-09-12T05:33:56.205Z,17.60
2018-09-12T05:35:00.901Z,17.50
2018-09-12T05:36:04.930Z,17.60
2018-09-12T05:37:09.281Z,17.60
2018-09-12T05:38:13.526Z,17.50
2018-09-12T05:39:18.064Z,17.50
2018-09-12T05:40:22.900Z,17.50
2018-09-12T05:41:33.244Z,17.50
2018-09-12T05:42:39.696Z,17.50
2018-09-12T05:43:45.864Z,17.60
2018-09-12T05:44:53.193Z,17.60
2018-09-12T05:45:57.205Z,17.60
2018-09-12T05:47:01.658Z,17.60
2018-09-12T05:48:05.813Z,17.60
2018-09-12T05:49:09.967Z,17.60
2018-09-12T05:50:14.312Z,17.60
2018-09-12T05:51:18.732Z,17.60
2018-09-12T05:52:22.957Z,17.60
2018-09-12T05:53:27.220Z,17.60
2018-09-12T05:54:32.659Z,17.60
2018-09-12T05:55:36.749Z,17.60
2018-09-12T05:56:41.070Z,17.60
2018-09-12T05:57:45.245Z,17.60
2018-09-12T05:58:49.368Z,17.60
2018-09-12T05:59:53.485Z,17.60
2018-09-12T06:00:57.501Z,17.60
2018-09-12T06:02:01.538Z,17.70
2018-09-12T06:03:08.573Z,17.70
2018-09-12T06:04:13.148Z,17.70
2018-09-12T06:05:17.568Z,17.70
2018-09-12T06:06:21.735Z,17.70
2018-09-12T06:07:25.804Z,17.70
2018-09-12T06:08:29.986Z,17.70
2018-09-12T06:09:34.152Z,17.70
2018-09-12T06:10:38.476Z,17.60
2018-09-12T06:11:42.620Z,18.90
2018-09-12T06:12:46.886Z,17.60
2018-09-12T06:13:51.019Z,17.60
2018-09-12T06:14:55.169Z,17.60
2018-09-12T06:15:59.560Z,17.70
2018-09-12T06:17:04.282Z,17.60
2018-09-12T06:18:08.355Z,17.60
2018-09-12T06:19:12.567Z,17.60
2018-09-12T06:20:17.447Z,17.70
2018-09-12T06:21:23.754Z,17.70
2018-09-12T06:22:27.865Z,17.70
2018-09-12T06:23:32.711Z,17.70
2018-09-12T06:24:38.811Z,17.80
2018-09-12T06:25:43.775Z,17.80
2018-09-12T06:26:49.208Z,17.80
2018-09-12T06:27:53.398Z,17.80
2018-09-12T06:28:59.586Z,17.90
2018-09-12T06:30:04.372Z,17.90
2018-09-12T06:31:09.028Z,17.90
2018-09-12T06:32:13.176Z,17.90
2018-09-12T06:33:17.537Z,17.90
2018-09-12T06:34:21.906Z,17.90
2018-09-12T06:35:26.698Z,18.30
2018-09-12T06:36:31.370Z,17.90
2018-09-12T06:37:36.348Z,17.90
2018-09-12T06:38:42.101Z,17.90
2018-09-12T06:39:46.444Z,18.00
2018-09-12T06:40:51.738Z,18.00
2018-09-12T06:41:56.861Z,18.00
2018-09-12T06:43:01.101Z,18.10
2018-09-12T06:44:05.705Z,17.30
2018-09-12T06:45:09.816Z,18.10
2018-09-12T06:46:13.843Z,18.10
2018-09-12T06:47:18.166Z,18.20
2018-09-12T06:48:22.473Z,18.20
2018-09-12T06:49:30.748Z,18.20
2018-09-12T06:50:35.008Z,18.20
2018-09-12T06:51:39.749Z,18.20
2018-09-12T06:53:56.180Z,18.30
2018-09-12T06:55:00.551Z,18.30
2018-09-12T06:56:05.135Z,18.30
2018-09-12T06:57:10.073Z,18.30
2018-09-12T06:58:14.463Z,18.40
2018-09-12T06:59:18.760Z,18.40
2018-09-12T07:00:23.590Z,18.40
2018-09-12T07:01:30.187Z,18.40
2018-09-12T07:02:34.346Z,18.50
2018-09-12T07:03:39.241Z,18.50
2018-09-12T07:04:44.229Z,18.50
2018-09-12T07:05:48.319Z,18.50
2018-09-12T07:06:52.577Z,18.50
2018-09-12T07:07:56.746Z,18.60
2018-09-12T07:09:01.056Z,18.60
2018-09-12T07:10:05.255Z,18.60
2018-09-12T07:11:09.425Z,18.60
2018-09-12T07:12:13.733Z,18.60
2018-09-12T07:13:18.150Z,18.60
2018-09-12T07:14:22.641Z,18.70
2018-09-12T07:15:26.753Z,18.70
2018-09-12T07:16:31.181Z,18.70
2018-09-12T07:17:35.345Z,18.80
2018-09-12T07:18:39.668Z,18.80
2018-09-12T07:19:43.839Z,18.90
2018-09-12T07:20:48.087Z,18.90
2018-09-12T07:21:52.338Z,18.90
2018-09-12T07:22:56.297Z,18.90
2018-09-12T07:24:00.594Z,18.90
2018-09-12T07:25:04.874Z,19.00
2018-09-12T07:26:11.849Z,19.00
2018-09-12T07:27:16.168Z,19.00
2018-09-12T07:28:21.157Z,19.10
2018-09-12T07:29:25.907Z,19.10
2018-09-12T07:30:30.288Z,19.10
2018-09-12T07:31:35.273Z,19.10
2018-09-12T07:32:39.637Z,19.10
2018-09-12T07:33:44.875Z,19.20
2018-09-12T07:34:50.959Z,19.20
2018-09-12T07:35:55.159Z,19.20
2018-09-12T07:36:59.258Z,19.30
2018-09-12T07:38:04.076Z,19.30
2018-09-12T07:39:10.256Z,19.30
2018-09-12T07:40:15.771Z,19.40
2018-09-12T07:41:21.759Z,19.30
2018-09-12T07:42:26.193Z,19.40
2018-09-12T07:43:31.409Z,19.40
2018-09-12T07:44:35.799Z,19.50
2018-09-12T07:45:40.782Z,19.50
2018-09-12T07:46:45.009Z,19.50
2018-09-12T07:47:49.157Z,19.60
2018-09-12T07:48:53.304Z,19.60
2018-09-12T07:49:57.381Z,17.50
2018-09-12T07:51:01.914Z,19.60
2018-09-12T07:52:06.102Z,19.60
2018-09-12T07:53:10.406Z,19.70
2018-09-12T07:54:14.498Z,19.70
2018-09-12T07:55:20.356Z,19.70
2018-09-12T07:56:24.969Z,19.70
2018-09-12T07:57:32.532Z,19.70
2018-09-12T07:58:38.397Z,19.70
2018-09-12T07:59:42.673Z,19.80
2018-09-12T08:00:47.062Z,19.80
2018-09-12T08:01:51.435Z,19.80
2018-09-12T08:02:55.668Z,19.80
2018-09-12T08:04:00.349Z,19.90
2018-09-12T08:05:04.670Z,19.90
2018-09-12T08:06:09.748Z,19.90
2018-09-12T08:07:14.343Z,19.90
2018-09-12T08:08:18.667Z,20.00
2018-09-12T08:09:23.661Z,20.00
2018-09-12T08:10:28.966Z,20.10
2018-09-12T08:11:33.882Z,20.10
2018-09-12T08:12:40.354Z,20.10
2018-09-12T08:13:46.187Z,20.10
2018-09-12T08:14:50.869Z,20.20
2018-09-12T08:15:55.007Z,20.20
2018-09-12T08:16:59.204Z,20.20
2018-09-12T08:18:04.017Z,20.20
2018-09-12T08:19:08.418Z,20.30
2018-09-12T08:20:12.773Z,20.30
2018-09-12T08:21:17.078Z,20.30
2018-09-12T08:22:22.710Z,20.40
2018-09-12T08:23:27.191Z,20.40
2018-09-12T08:24:31.320Z,20.50
2018-09-12T08:25:35.619Z,20.50
2018-09-12T08:26:40.365Z,20.60
2018-09-12T08:27:46.050Z,20.60
2018-09-12T08:28:50.253Z,20.60
2018-09-12T08:29:57.737Z,20.70
2018-09-12T08:31:02.293Z,20.70
2018-09-12T08:32:06.752Z,20.70
2018-09-12T08:33:11.115Z,20.70
2018-09-12T08:34:15.529Z,20.70
2018-09-12T08:35:20.785Z,20.70
2018-09-12T08:36:28.217Z,20.70
2018-09-12T08:37:33.730Z,20.80
2018-09-12T08:38:40.535Z,20.80
2018-09-12T08:39:46.106Z,20.90
2018-09-12T08:40:51.995Z,20.90
2018-09-12T08:41:57.913Z,20.90
2018-09-12T08:43:02.440Z,20.90
2018-09-12T08:44:10.518Z,21.00
2018-09-12T08:45:15.435Z,21.00
2018-09-12T08:46:22.370Z,21.00
2018-09-12T08:47:28.281Z,21.00
2018-09-12T08:48:37.416Z,21.00
2018-09-12T08:49:41.725Z,21.00
2018-09-12T08:50:50.104Z,21.00
2018-09-12T08:51:56.416Z,21.10
2018-09-12T08:53:00.666Z,21.00
2018-09-12T08:54:04.988Z,21.10
2018-09-12T08:55:11.315Z,21.80
2018-09-12T08:56:15.772Z,21.10
2018-09-12T08:57:20.129Z,21.20
2018-09-12T08:58:25.807Z,21.20
2018-09-12T08:59:30.371Z,21.20
2018-09-12T09:00:35.339Z,21.20
2018-09-12T09:01:40.262Z,21.20
2018-09-12T09:02:53.077Z,21.30
2018-09-12T09:04:07.007Z,21.30
2018-09-12T09:05:11.827Z,21.30
2018-09-12T09:06:17.918Z,21.30
2018-09-12T09:07:22.281Z,21.40
2018-09-12T09:08:26.902Z,21.40
2018-09-12T09:09:31.572Z,21.40
2018-09-12T09:10:35.869Z,21.40
2018-09-12T09:11:40.864Z,21.50
2018-09-12T09:12:47.456Z,21.50
2018-09-12T09:13:52.508Z,21.50
2018-09-12T09:14:56.816Z,21.50
2018-09-12T09:16:01.054Z,21.60
2018-09-12T09:17:05.333Z,21.60
2018-09-12T09:18:10.645Z,21.70
2018-09-12T09:19:14.766Z,21.70
2018-09-12T09:20:19.280Z,21.70
2018-09-12T09:21:23.370Z,21.70
2018-09-12T09:22:29.473Z,21.70
2018-09-12T09:23:35.097Z,21.80
2018-09-12T09:24:41.823Z,21.80
2018-09-12T09:25:47.562Z,21.80
2018-09-12T09:26:52.346Z,21.80
2018-09-12T09:27:57.955Z,21.90
2018-09-12T09:29:03.671Z,21.90
2018-09-12T09:30:09.071Z,21.90
2018-09-12T09:31:13.310Z,21.90
2018-09-12T09:32:18.032Z,22.00
2018-09-12T09:33:22.249Z,22.00
2018-09-12T09:34:26.980Z,22.00
2018-09-12T09:35:31.807Z,22.10
2018-09-12T09:36:35.863Z,22.00
2018-09-12T09:37:40.482Z,22.10
2018-09-12T09:38:46.025Z,22.10
2018-09-12T09:39:51.343Z,22.10
2018-09-12T09:40:56.176Z,22.10
2018-09-12T09:42:01.165Z,22.20
2018-09-12T09:43:06.261Z,22.20
2018-09-12T09:44:10.535Z,22.20
2018-09-12T09:45:14.557Z,22.20
2018-09-12T09:46:22.183Z,22.20
2018-09-12T09:47:26.217Z,22.20
2018-09-12T09:48:32.011Z,22.30
2018-09-12T09:49:36.461Z,22.30
2018-09-12T09:50:40.724Z,22.40
2018-09-12T09:51:44.890Z,22.40
2018-09-12T09:52:49.544Z,22.50
2018-09-12T09:53:53.650Z,22.50
2018-09-12T09:54:57.898Z,22.50
2018-09-12T09:56:02.342Z,22.60
2018-09-12T09:57:07.256Z,22.60
2018-09-12T09:58:16.771Z,22.60
2018-09-12T09:59:21.325Z,22.70
2018-09-12T10:00:30.817Z,22.60
2018-09-12T10:01:40.185Z,22.70
2018-09-12T10:02:50.595Z,22.70
2018-09-12T10:03:59.800Z,22.70
2018-09-12T10:05:09.711Z,22.70
2018-09-12T10:06:20.171Z,22.70
2018-09-12T10:07:29.733Z,22.80
2018-09-12T10:08:40.542Z,22.80
2018-09-12T10:09:47.057Z,22.80
2018-09-12T10:10:54.057Z,22.80
2018-09-12T10:11:59.355Z,22.90
2018-09-12T10:13:03.377Z,22.90
2018-09-12T10:14:07.649Z,22.90
2018-09-12T10:15:13.603Z,23.60
2018-09-12T10:16:18.570Z,22.90
2018-09-12T10:17:23.095Z,22.80
2018-09-12T10:18:28.303Z,23.00
2018-09-12T10:19:33.380Z,25.00
2018-09-12T10:20:38.735Z,23.00
2018-09-12T10:21:42.846Z,23.10
2018-09-12T10:22:47.249Z,23.10
2018-09-12T10:23:51.992Z,23.10
2018-09-12T10:24:56.285Z,23.10
2018-09-12T10:26:00.757Z,23.10
2018-09-12T10:27:04.816Z,23.10
2018-09-12T10:28:09.050Z,23.10
2018-09-12T10:29:13.984Z,23.20
2018-09-12T10:30:18.248Z,23.20
2018-09-12T10:31:22.381Z,23.20
2018-09-12T10:32:26.552Z,23.30
2018-09-12T10:33:30.764Z,23.30
2018-09-12T10:34:36.413Z,23.40
2018-09-12T10:35:40.506Z,23.40
2018-09-12T10:36:45.524Z,21.40
2018-09-12T10:37:50.558Z,23.50
2018-09-12T10:38:55.457Z,23.50
2018-09-12T10:39:59.461Z,21.70
2018-09-12T10:41:03.599Z,23.60
2018-09-12T10:42:07.662Z,23.60
2018-09-12T10:43:12.523Z,23.60
2018-09-12T10:44:16.701Z,23.60
2018-09-12T10:45:20.725Z,23.60
2018-09-12T10:46:26.282Z,23.60
2018-09-12T10:47:30.312Z,23.60
2018-09-12T10:48:34.846Z,23.60
2018-09-12T10:49:39.308Z,23.60
2018-09-12T10:50:44.424Z,23.70
2018-09-12T10:51:49.561Z,23.80
2018-09-12T10:52:53.833Z,23.80
2018-09-12T10:53:58.867Z,23.90
2018-09-12T10:55:05.057Z,23.90
2018-09-12T10:56:09.755Z,23.90
2018-09-12T10:57:13.808Z,23.90
2018-09-12T10:58:19.032Z,23.90
2018-09-12T10:59:23.320Z,23.90
2018-09-12T11:00:29.411Z,23.90
2018-09-12T11:01:33.594Z,24.00
2018-09-12T11:02:41.306Z,24.00
2018-09-12T11:03:46.105Z,23.60
2018-09-12T11:04:50.262Z,24.00
2018-09-12T11:05:55.712Z,26.10
2018-09-12T11:07:00.339Z,24.10
2018-09-12T11:08:04.757Z,24.10
2018-09-12T11:09:12.705Z,24.10
2018-09-12T11:10:17.163Z,24.00
2018-09-12T11:11:23.267Z,24.00
2018-09-12T11:12:28.262Z,24.00
2018-09-12T11:13:32.858Z,24.10
2018-09-12T11:14:38.455Z,23.90
2018-09-12T11:15:43.773Z,23.90
2018-09-12T11:16:48.303Z,23.90
2018-09-12T11:17:52.718Z,23.90
2018-09-12T11:18:56.929Z,24.00
2018-09-12T11:20:01.265Z,24.00
2018-09-12T11:21:06.358Z,24.10
2018-09-12T11:22:10.742Z,24.10
2018-09-12T11:23:15.319Z,24.20
2018-09-12T11:24:19.750Z,24.30
2018-09-12T11:25:24.462Z,25.00
2018-09-12T11:26:29.370Z,24.40
2018-09-12T11:27:33.979Z,24.40
2018-09-12T11:28:40.081Z,24.40
2018-09-12T11:29:47.766Z,24.40
2018-09-12T11:30:52.079Z,24.40
2018-09-12T11:31:57.402Z,24.50
2018-09-12T11:33:02.487Z,24.60
2018-09-12T11:34:06.737Z,24.70
2018-09-12T11:35:11.022Z,24.90
2018-09-12T11:36:15.576Z,25.20
2018-09-12T11:37:19.732Z,25.30
2018-09-12T11:38:24.172Z,25.60
2018-09-12T11:39:29.433Z,26.10
2018-09-12T11:40:33.419Z,26.70
2018-09-12T11:41:39.462Z,27.10
2018-09-12T11:42:44.276Z,27.30
2018-09-12T11:43:48.977Z,27.40
2018-09-12T11:44:54.318Z,27.40
2018-09-12T11:45:59.730Z,27.80
2018-09-12T11:47:04.176Z,28.30
2018-09-12T11:48:10.735Z,28.90
2018-09-12T11:49:14.887Z,29.50
2018-09-12T11:50:19.189Z,30.00
2018-09-12T11:51:24.173Z,29.60
2018-09-12T11:52:28.506Z,29.70
2018-09-12T11:53:32.758Z,30.00
2018-09-12T11:54:38.267Z,30.30
2018-09-12T11:55:42.569Z,30.70
2018-09-12T11:56:46.915Z,30.90
2018-09-12T11:57:51.107Z,31.30
2018-09-12T11:58:55.345Z,31.60
2018-09-12T11:59:59.493Z,31.80
2018-09-12T12:01:03.951Z,31.70
2018-09-12T12:02:08.973Z,31.90
2018-09-12T12:03:15.080Z,32.20
2018-09-12T12:04:20.860Z,32.40
2018-09-12T12:05:27.044Z,32.70
2018-09-12T12:06:36.931Z,33.10
2018-09-12T12:07:41.153Z,33.40
2018-09-12T12:08:45.370Z,33.50
2018-09-12T12:09:50.364Z,33.70
2018-09-12T12:10:56.209Z,33.90
2018-09-12T12:12:00.596Z,33.70
2018-09-12T12:13:04.924Z,33.70
2018-09-12T12:14:10.805Z,33.80
2018-09-12T12:15:16.334Z,34.10
2018-09-12T12:16:20.803Z,34.30
2018-09-12T12:17:25.079Z,34.30
2018-09-12T12:18:29.532Z,34.20
2018-09-12T12:19:33.666Z,34.30
2018-09-12T12:20:38.270Z,34.40
2018-09-12T12:21:42.844Z,34.50
2018-09-12T12:22:47.340Z,34.70
2018-09-12T12:23:52.287Z,34.90
2018-09-12T12:24:57.425Z,35.20
2018-09-12T12:26:02.591Z,34.90
2018-09-12T12:27:07.273Z,34.80
2018-09-12T12:28:11.703Z,34.60
2018-09-12T12:29:18.436Z,34.40
2018-09-12T12:30:24.348Z,34.40
2018-09-12T12:31:29.750Z,34.40
2018-09-12T12:32:34.161Z,34.40
2018-09-12T12:33:38.688Z,34.20
2018-09-12T12:34:43.182Z,34.20
2018-09-12T12:35:47.399Z,34.20
2018-09-12T12:36:52.743Z,34.30
2018-09-12T12:37:57.819Z,34.60
2018-09-12T12:39:02.152Z,34.60
2018-09-12T12:40:07.514Z,34.70
2018-09-12T12:41:15.987Z,34.80
2018-09-12T12:42:20.761Z,34.60
2018-09-12T12:43:25.823Z,34.10
2018-09-12T12:44:33.332Z,33.70
2018-09-12T12:45:38.200Z,33.00
2018-09-12T12:46:42.788Z,32.50
2018-09-12T12:47:46.992Z,32.20
2018-09-12T12:48:53.218Z,31.70
2018-09-12T12:49:59.236Z,31.30
2018-09-12T12:51:03.281Z,31.00
2018-09-12T12:52:07.641Z,30.80
2018-09-12T12:53:11.972Z,30.80
2018-09-12T12:54:16.053Z,30.60
2018-09-12T12:55:20.806Z,30.50
2018-09-12T12:56:25.977Z,29.70
2018-09-12T12:57:31.533Z,30.30
2018-09-12T12:58:35.741Z,30.00
2018-09-12T12:59:40.077Z,29.60
2018-09-12T13:00:44.929Z,29.30
2018-09-12T13:01:50.999Z,29.00
2018-09-12T13:02:55.429Z,28.80
2018-09-12T13:03:59.641Z,28.80
2018-09-12T13:05:03.743Z,28.80
2018-09-12T13:06:08.235Z,28.70
2018-09-12T13:07:12.768Z,28.70
2018-09-12T13:08:19.755Z,28.60
2018-09-12T13:09:27.800Z,28.70
2018-09-12T13:10:32.343Z,28.60
2018-09-12T13:11:38.690Z,28.40
2018-09-12T13:12:43.300Z,28.20
2018-09-12T13:13:48.182Z,28.10
2018-09-12T13:14:52.382Z,28.00
2018-09-12T13:15:59.016Z,28.00
2018-09-12T13:17:03.206Z,29.00
2018-09-12T13:18:07.786Z,28.00
2018-09-12T13:19:11.971Z,28.00
2018-09-12T13:20:16.124Z,28.00
2018-09-12T13:21:20.562Z,28.00
2018-09-12T13:22:25.977Z,28.00
2018-09-12T13:23:30.681Z,28.00
2018-09-12T13:24:35.296Z,27.90
2018-09-12T13:25:39.813Z,27.80
2018-09-12T13:26:44.522Z,27.70
2018-09-12T13:27:50.137Z,27.70
2018-09-12T13:28:54.354Z,27.70
2018-09-12T13:29:58.896Z,27.70
2018-09-12T13:31:04.152Z,27.60
2018-09-12T13:32:08.650Z,27.60
2018-09-12T13:33:13.248Z,27.60
2018-09-12T13:34:18.392Z,27.50
2018-09-12T13:35:23.177Z,27.50
2018-09-12T13:36:27.901Z,27.40
2018-09-12T13:37:32.427Z,27.40
2018-09-12T13:38:36.532Z,27.30
2018-09-12T13:39:41.717Z,27.30
2018-09-12T13:40:47.518Z,27.30
2018-09-12T13:41:51.564Z,27.30
2018-09-12T13:42:55.700Z,27.30
2018-09-12T13:43:59.749Z,27.30
2018-09-12T13:45:04.197Z,27.20
2018-09-12T13:46:10.091Z,27.20
2018-09-12T13:47:14.264Z,27.20
2018-09-12T13:48:18.404Z,27.10
2018-09-12T13:49:22.883Z,27.00
2018-09-12T13:50:30.050Z,27.00
2018-09-12T13:51:34.614Z,26.90
2018-09-12T13:52:39.081Z,26.90
2018-09-12T13:53:43.750Z,26.90
2018-09-12T13:54:48.239Z,26.80
2018-09-12T13:55:52.514Z,26.70
2018-09-12T13:56:56.760Z,26.70
2018-09-12T13:58:03.978Z,26.70
2018-09-12T13:59:07.980Z,26.80